Time;durP1;ratioP1;P1;durP2;ratioP2;P2;SDS_P1;SDS_P2;PMS_P1;PMS_P2;Temp;Humidity;BMP_temperature;BMP_pressure;BME280_temperature;BME280_humidity;BME280_pressure;Samples;Min_cycle;Max_cycle;Signal;HPM_P1;HPM_P2
2022/10/16 00:00:29;;;;;;;16.30;13.00;;;21.40;71.80;;;;;;215038;1294;23121;-57
2022/10/16 00:05:52;;;;;;;17.20;13.00;;;21.40;71.80;;;;;;214876;1301;22472;-57
2022/10/16 00:11:29;;;;;;;16.20;13.10;;;21.30;71.30;;;;;;215018;1284;22465;-56
2022/10/16 00:16:34;;;;;;;17.40;13.30;;;21.30;71.10;;;;;;214795;1293;25411;-56
2022/10/16 00:21:37;;;;;;;15.40;12.50;;;21.30;71.20;;;;;;215056;1291;24266;-54
2022/10/16 00:26:41;;;;;;;18.40;12.30;;;21.30;71.00;;;;;;214693;1285;23880;-55
2022/10/16 00:31:44;;;;;;;17.20;12.30;;;21.30;71.00;;;;;;215080;1293;22464;-55
2022/10/16 00:36:48;;;;;;;18.50;12.20;;;21.30;71.10;;;;;;215000;1281;24222;-58
2022/10/16 00:41:51;;;;;;;14.10;11.40;;;21.30;70.70;;;;;;215038;1299;22735;-56
2022/10/16 00:46:55;;;;;;;15.50;11.10;;;21.30;70.50;;;;;;215122;1297;22457;-54
2022/10/16 00:52:02;;;;;;;14.00;11.60;;;21.20;70.70;;;;;;215048;1289;22848;-54
2022/10/16 00:57:07;;;;;;;13.60;11.00;;;21.20;70.50;;;;;;215104;1282;24253;-55
2022/10/16 01:02:14;;;;;;;14.10;11.60;;;21.20;70.20;;;;;;215076;1300;25324;-55
2022/10/16 01:07:36;;;;;;;12.70;10.70;;;21.20;70.40;;;;;;214990;1295;24193;-56
2022/10/16 01:12:47;;;;;;;14.60;11.30;;;21.20;70.10;;;;;;215081;1294;22454;-55
2022/10/16 01:18:00;;;;;;;;;;;21.10;70.10;;;;;;215030;1293;22456;-57
2022/10/16 01:23:27;;;;;;;13.50;10.80;;;21.10;70.10;;;;;;215032;1292;25487;-55
2022/10/16 01:28:52;;;;;;;12.90;9.80;;;21.10;70.20;;;;;;215040;1288;24302;-56
2022/10/16 01:34:04;;;;;;;14.70;11.00;;;21.20;70.30;;;;;;214980;1300;22466;-55
2022/10/16 01:39:11;;;;;;;13.10;9.70;;;21.10;70.50;;;;;;215021;1299;22529;-59
2022/10/16 01:44:22;;;;;;;12.30;10.00;;;21.20;70.20;;;;;;215039;1300;22460;-57
2022/10/16 01:49:31;;;;;;;13.30;9.90;;;21.10;70.30;;;;;;214805;1300;25328;-55
2022/10/16 01:54:37;;;;;;;13.10;10.20;;;21.20;70.10;;;;;;215069;1288;22677;-54
2022/10/16 01:59:48;;;;;;;13.20;10.00;;;21.10;70.20;;;;;;215073;1299;23886;-55
2022/10/16 02:04:58;;;;;;;10.90;9.40;;;21.10;70.10;;;;;;215000;1287;25487;-56
2022/10/16 02:10:02;;;;;;;12.60;10.10;;;21.10;70.20;;;;;;215026;1291;22429;-56
2022/10/16 02:15:06;;;;;;;13.00;9.40;;;21.10;70.50;;;;;;215180;1293;22463;-57
2022/10/16 02:20:10;;;;;;;14.20;10.20;;;21.10;70.20;;;;;;215125;1282;22468;-54
2022/10/16 02:25:27;;;;;;;15.70;9.90;;;21.10;70.10;;;;;;215147;1285;22877;-54
2022/10/16 02:30:38;;;;;;;9.90;8.60;;;21.10;70.50;;;;;;215024;1288;22583;-54
2022/10/16 02:35:44;;;;;;;12.60;9.90;;;21.10;70.10;;;;;;215045;1294;22512;-54
2022/10/16 02:40:48;;;;;;;11.60;9.60;;;21.10;70.10;;;;;;214793;1291;22443;-58
2022/10/16 02:45:52;;;;;;;11.70;9.20;;;21.10;70.10;;;;;;215056;1282;23169;-57
2022/10/16 02:50:56;;;;;;;12.90;10.20;;;21.00;70.00;;;;;;214939;1286;22510;-55
2022/10/16 02:56:00;;;;;;;13.70;9.20;;;21.10;70.40;;;;;;214853;1287;24825;-55
2022/10/16 03:01:04;;;;;;;10.90;8.30;;;21.00;70.00;;;;;;214907;1287;24636;-56
2022/10/16 03:06:07;;;;;;;11.80;9.20;;;21.10;70.10;;;;;;214775;1291;23848;-56
2022/10/16 03:11:11;;;;;;;12.10;9.10;;;21.00;70.00;;;;;;214943;1285;25520;-54
2022/10/16 03:16:14;;;;;;;12.60;9.70;;;21.00;70.00;;;;;;214950;1281;24300;-55
2022/10/16 03:21:18;;;;;;;12.20;8.80;;;21.00;70.00;;;;;;214949;1283;24299;-51
2022/10/16 03:26:21;;;;;;;10.60;9.10;;;21.00;69.90;;;;;;214950;1284;24232;-55
2022/10/16 03:31:24;;;;;;;11.70;8.90;;;21.00;70.00;;;;;;214935;1300;23845;-56
2022/10/16 03:36:28;;;;;;;11.50;8.30;;;21.00;69.90;;;;;;215001;1292;24021;-58
2022/10/16 03:41:32;;;;;;;12.80;9.00;;;21.00;69.90;;;;;;215141;1282;22501;-54
2022/10/16 03:46:36;;;;;;;12.50;8.70;;;21.00;70.30;;;;;;214923;1300;25195;-55
2022/10/16 03:51:39;;;;;;;14.10;9.20;;;20.90;69.90;;;;;;215022;1300;25532;-56
2022/10/16 03:56:43;;;;;;;11.40;8.60;;;20.90;69.90;;;;;;214955;1294;24314;-56
2022/10/16 04:01:46;;;;;;;10.90;8.40;;;21.00;69.90;;;;;;215009;1283;24234;-57
2022/10/16 04:06:50;;;;;;;11.70;8.90;;;21.00;70.00;;;;;;214947;1283;24242;-56
2022/10/16 04:11:54;;;;;;;9.90;8.20;;;20.90;70.00;;;;;;215019;1282;24300;-55
2022/10/16 04:16:57;;;;;;;10.80;8.80;;;20.90;69.90;;;;;;215021;1288;22460;-55
2022/10/16 04:22:02;;;;;;;13.60;9.00;;;20.90;70.00;;;;;;214988;1288;22509;-54
2022/10/16 04:27:05;;;;;;;11.30;8.70;;;20.90;70.40;;;;;;215058;1289;22526;-57
2022/10/16 04:32:09;;;;;;;11.70;8.40;;;20.90;70.30;;;;;;215074;1292;23440;-55
2022/10/16 04:37:12;;;;;;;13.80;7.90;;;20.90;70.10;;;;;;215115;1292;22455;-54
2022/10/16 04:42:16;;;;;;;10.00;7.70;;;21.00;70.10;;;;;;214696;1284;24238;-54
2022/10/16 04:47:19;;;;;;;9.50;7.00;;;21.20;69.60;;;;;;214989;1300;22476;-55
2022/10/16 04:52:24;;;;;;;12.50;8.10;;;21.50;68.80;;;;;;215014;1294;22497;-55
2022/10/16 04:57:29;;;;;;;8.10;7.00;;;21.60;68.10;;;;;;214764;1278;24243;-59
2022/10/16 05:02:33;;;;;;;10.30;6.90;;;21.80;67.80;;;;;;214985;1281;22757;-56
2022/10/16 05:07:37;;;;;;;11.00;7.40;;;21.80;67.50;;;;;;215054;1282;24275;-54
2022/10/16 05:12:40;;;;;;;9.80;7.80;;;22.00;67.40;;;;;;215095;1285;22585;-54
2022/10/16 05:17:44;;;;;;;10.00;7.90;;;22.00;67.00;;;;;;215015;1299;25244;-55
2022/10/16 05:22:48;;;;;;;8.60;7.10;;;22.10;66.80;;;;;;215049;1285;24183;-54
2022/10/16 05:27:51;;;;;;;12.20;7.80;;;22.30;66.60;;;;;;215150;1295;23429;-57
2022/10/16 05:32:55;;;;;;;10.90;6.90;;;22.20;66.50;;;;;;214925;1285;22485;-55
2022/10/16 05:37:58;;;;;;;11.40;6.80;;;22.20;66.50;;;;;;214976;1279;22475;-55
2022/10/16 05:43:02;;;;;;;8.20;6.50;;;22.20;66.90;;;;;;214776;1281;22492;-56
2022/10/16 05:48:06;;;;;;;7.00;6.30;;;22.10;66.70;;;;;;214895;1284;24245;-52
2022/10/16 05:53:10;;;;;;;8.20;6.50;;;22.10;67.00;;;;;;215012;1286;25289;-56
2022/10/16 05:58:13;;;;;;;8.70;7.00;;;22.10;67.00;;;;;;214986;1281;24231;-55
2022/10/16 06:03:17;;;;;;;8.10;6.60;;;22.10;67.00;;;;;;215006;1271;22854;-55
2022/10/16 06:08:22;;;;;;;7.30;6.10;;;22.10;67.20;;;;;;214647;1281;383503;-55
2022/10/16 06:13:26;;;;;;;9.70;6.50;;;22.00;67.20;;;;;;214816;1294;22473;-55
2022/10/16 06:18:30;;;;;;;10.20;6.60;;;22.00;67.20;;;;;;214917;1287;22496;-55
2022/10/16 06:23:34;;;;;;;10.20;6.50;;;22.10;67.60;;;;;;215048;1282;24308;-54
2022/10/16 06:28:45;;;;;;;13.20;6.70;;;22.00;67.40;;;;;;214793;1294;22551;-55
2022/10/16 06:33:57;;;;;;;15.10;6.60;;;22.00;68.70;;;;;;214879;1285;22500;-56
2022/10/16 06:39:01;;;;;;;16.50;7.00;;;22.00;70.20;;;;;;214991;1288;23667;-54
2022/10/16 06:44:07;;;;;;;15.30;6.40;;;22.10;69.60;;;;;;215144;1281;23009;-54
2022/10/16 06:49:22;;;;;;;10.30;5.70;;;22.00;70.20;;;;;;214973;1299;25407;-54
2022/10/16 06:54:33;;;;;;;12.90;6.10;;;22.00;70.30;;;;;;215182;1281;24232;-53
2022/10/16 06:59:47;;;;;;;16.90;6.10;;;21.90;70.50;;;;;;215046;1282;25956;-55
2022/10/16 07:04:57;;;;;;;17.50;6.80;;;21.90;70.20;;;;;;214986;1295;23061;-53
2022/10/16 07:10:02;;;;;;;16.20;6.60;;;21.90;70.60;;;;;;215009;1294;23852;-54
2022/10/16 07:15:07;;;;;;;23.30;8.60;;;21.90;70.70;;;;;;214972;1281;23737;-52
2022/10/16 07:20:11;;;;;;;11.50;5.60;;;21.80;70.70;;;;;;215899;1293;23873;-54
2022/10/16 07:25:23;;;;;;;12.50;6.30;;;21.80;70.60;;;;;;214805;1291;22848;-55
2022/10/16 07:30:28;;;;;;;12.30;5.50;;;21.80;70.30;;;;;;215130;1294;25199;-56
2022/10/16 07:35:33;;;;;;;13.40;6.00;;;21.80;70.20;;;;;;215073;1300;22683;-54
2022/10/16 07:40:46;;;;;;;7.30;4.90;;;21.70;70.10;;;;;;215147;1300;25370;-53
2022/10/16 07:45:54;;;;;;;13.70;5.60;;;21.70;70.20;;;;;;215039;1284;22470;-56
2022/10/16 07:51:05;;;;;;;11.80;5.10;;;21.70;69.60;;;;;;215105;1285;22469;-56
2022/10/16 07:56:09;;;;;;;9.20;5.70;;;21.70;70.20;;;;;;215041;1284;22470;-55
2022/10/16 08:01:15;;;;;;;13.00;5.50;;;21.70;70.20;;;;;;215115;1286;22696;-54
2022/10/16 08:06:22;;;;;;;8.40;6.10;;;21.70;69.80;;;;;;214763;1282;24293;-55
2022/10/16 08:11:30;;;;;;;9.40;5.30;;;21.60;69.70;;;;;;215168;1281;24208;-55
2022/10/16 08:16:34;;;;;;;6.90;5.40;;;21.70;69.60;;;;;;214982;1291;22461;-55
2022/10/16 08:21:38;;;;;;;10.10;5.20;;;21.70;70.00;;;;;;215048;1286;24374;-56
2022/10/16 08:26:41;;;;;;;7.70;4.90;;;21.60;69.50;;;;;;214997;1288;22617;-55
2022/10/16 08:31:55;;;;;;;5.90;4.40;;;21.60;69.80;;;;;;215005;1281;22463;-54
2022/10/16 08:36:58;;;;;;;7.60;4.40;;;21.60;69.40;;;;;;214962;1300;24307;-55
2022/10/16 08:42:30;;;;;;;7.50;5.10;;;21.60;69.40;;;;;;215054;1289;24209;-57
2022/10/16 08:48:17;;;;;;;8.30;4.90;;;21.60;69.40;;;;;;214963;1286;25358;-56
2022/10/16 08:53:30;;;;;;;7.10;4.50;;;21.60;69.40;;;;;;215029;1285;23024;-55
2022/10/16 08:58:33;;;;;;;7.00;4.20;;;21.60;69.30;;;;;;215117;1300;25257;-56
2022/10/16 09:04:02;;;;;;;6.60;4.30;;;21.60;69.30;;;;;;215035;1284;22521;-56
2022/10/16 09:09:24;;;;;;;9.30;4.80;;;21.60;69.20;;;;;;215146;1295;24369;-56
2022/10/16 09:15:00;;;;;;;7.50;4.60;;;21.60;69.20;;;;;;215012;1275;22649;-57
2022/10/16 09:20:22;;;;;;;9.60;4.70;;;21.60;69.50;;;;;;215111;1298;22515;-57
2022/10/16 09:25:30;;;;;;;6.00;4.10;;;21.60;69.50;;;;;;214916;1300;25354;-56
2022/10/16 09:30:46;;;;;;;6.00;4.30;;;21.60;69.10;;;;;;214975;1300;22465;-59
2022/10/16 09:35:54;;;;;;;5.80;4.50;;;21.60;69.00;;;;;;215123;1293;24009;-59
2022/10/16 09:41:03;;;;;;;5.50;3.80;;;21.60;69.00;;;;;;215146;1300;26536;-55
2022/10/16 09:46:25;;;;;;;5.90;4.10;;;21.70;69.00;;;;;;215141;1283;24103;-57
2022/10/16 09:51:36;;;;;;;5.80;4.30;;;21.70;68.80;;;;;;215043;1287;22696;-57
2022/10/16 09:56:41;;;;;;;6.20;4.10;;;21.80;68.60;;;;;;214951;1286;25284;-53
2022/10/16 10:01:55;;;;;;;5.70;4.40;;;21.90;68.80;;;;;;214985;1282;24314;-54
2022/10/16 10:07:02;;;;;;;8.00;3.90;;;21.90;68.60;;;;;;214737;1293;22468;-53
2022/10/16 10:12:16;;;;;;;8.10;3.90;;;22.00;68.70;;;;;;214581;1281;22477;-55
2022/10/16 10:17:25;;;;;;;8.50;4.30;;;22.10;68.60;;;;;;222959;1288;22265;-54
2022/10/16 10:22:41;;;;;;;5.90;4.20;;;22.20;68.70;;;;;;220642;1281;24349;-55
2022/10/16 10:28:16;;;;;;;11.00;4.10;;;22.30;68.50;;;;;;222997;1281;22237;-54
2022/10/16 10:33:38;;;;;;;6.40;3.80;;;22.40;68.40;;;;;;221907;1284;22518;-53
2022/10/16 10:38:49;;;;;;;5.80;4.10;;;22.40;68.50;;;;;;214475;1283;24224;-55
2022/10/16 10:44:11;;;;;;;11.30;4.40;;;22.50;67.90;;;;;;214423;1294;25317;-52
2022/10/16 10:49:36;;;;;;;9.00;4.10;;;22.60;68.00;;;;;;214550;1277;22643;-53
2022/10/16 10:54:50;;;;;;;13.20;4.80;;;22.70;67.90;;;;;;214765;1286;22461;-55
2022/10/16 11:00:14;;;;;;;6.50;3.80;;;22.80;67.40;;;;;;215030;1286;24055;-55
2022/10/16 11:05:42;;;;;;;9.10;4.50;;;22.90;67.10;;;;;;215017;1294;22708;-55
2022/10/16 11:10:58;;;;;;;5.90;3.60;;;22.90;66.90;;;;;;214761;1297;27613;-55
2022/10/16 11:16:27;;;;;;;7.20;3.60;;;23.10;65.60;;;;;;214970;1293;25359;-55
2022/10/16 11:21:39;;;;;;;5.70;3.30;;;23.40;64.90;;;;;;214958;1281;22460;-54
2022/10/16 11:26:47;;;;;;;8.00;3.10;;;23.40;65.10;;;;;;214802;1286;23982;-56
2022/10/16 11:32:00;;;;;;;4.20;2.60;;;23.40;64.40;;;;;;214839;1295;22472;-53
2022/10/16 11:37:14;;;;;;;3.60;2.50;;;23.50;64.50;;;;;;214626;1300;23884;-56
2022/10/16 11:42:25;;;;;;;4.00;2.40;;;23.60;63.50;;;;;;214820;1292;24211;-53
2022/10/16 11:47:40;;;;;;;4.40;2.10;;;23.60;63.30;;;;;;215024;1286;22476;-56
2022/10/16 11:53:09;;;;;;;6.50;2.40;;;23.40;63.20;;;;;;214586;1285;24272;-56
2022/10/16 11:58:27;;;;;;;3.50;2.10;;;23.30;63.60;;;;;;214753;1285;22495;-55
2022/10/16 12:03:42;;;;;;;4.40;2.20;;;23.10;64.20;;;;;;214866;1282;22470;-54
2022/10/16 12:08:53;;;;;;;5.80;2.30;;;22.90;65.20;;;;;;214832;1300;25367;-56
2022/10/16 12:14:12;;;;;;;3.80;2.10;;;22.70;65.50;;;;;;214714;1288;22458;-55
2022/10/16 12:19:18;;;;;;;5.60;2.50;;;22.90;66.00;;;;;;214988;1288;22538;-51
2022/10/16 12:24:42;;;;;;;7.70;2.80;;;22.90;65.80;;;;;;214971;1286;23883;-55
2022/10/16 12:29:46;;;;;;;6.50;2.80;;;23.00;65.90;;;;;;214743;1298;25363;-55
2022/10/16 12:34:52;;;;;;;5.30;2.70;;;23.00;66.10;;;;;;214754;1286;25231;-56
2022/10/16 12:39:58;;;;;;;6.00;2.60;;;23.00;66.30;;;;;;214750;1288;25320;-53
2022/10/16 12:45:23;;;;;;;3.60;2.40;;;23.00;66.20;;;;;;214745;1281;22928;-56
2022/10/16 12:50:40;;;;;;;4.20;2.20;;;23.00;66.50;;;;;;214933;1286;25378;-56
2022/10/16 12:56:12;;;;;;;9.10;3.30;;;23.00;66.40;;;;;;214675;1285;22489;-55
2022/10/16 13:01:34;;;;;;;8.20;3.10;;;22.90;66.70;;;;;;214660;1284;22490;-58
2022/10/16 13:07:00;;;;;;;5.20;2.20;;;23.00;67.60;;;;;;214545;1299;25356;-57
2022/10/16 13:12:10;;;;;;;4.30;3.00;;;23.10;67.10;;;;;;214812;1287;24220;-55
2022/10/16 13:17:41;;;;;;;5.00;2.90;;;23.10;66.80;;;;;;214822;1280;24446;-52
2022/10/16 13:22:47;;;;;;;5.70;3.00;;;23.00;67.10;;;;;;214811;1294;22700;-52
2022/10/16 13:28:08;;;;;;;4.50;2.60;;;23.00;67.20;;;;;;214940;1279;22484;-54
2022/10/16 13:33:22;;;;;;;3.70;2.40;;;23.00;67.20;;;;;;215050;1285;22464;-52
2022/10/16 13:38:32;;;;;;;8.80;3.40;;;23.00;67.00;;;;;;221212;1295;25525;-54
2022/10/16 13:43:42;;;;;;;8.50;3.00;;;23.00;67.10;;;;;;214693;1284;22578;-52
2022/10/16 13:49:11;;;;;;;6.60;3.00;;;23.10;67.40;;;;;;214882;1300;25308;-53
2022/10/16 13:54:17;;;;;;;6.90;2.90;;;23.10;67.10;;;;;;215008;1292;22482;-52
2022/10/16 13:59:24;;;;;;;5.60;2.60;;;23.10;66.70;;;;;;215021;1288;24319;-52
2022/10/16 14:04:32;;;;;;;7.60;3.30;;;23.10;67.00;;;;;;214972;1278;22451;-53
2022/10/16 14:09:38;;;;;;;6.30;3.30;;;23.10;67.70;;;;;;214935;1296;23843;-53
2022/10/16 14:14:49;;;;;;;10.70;3.10;;;23.10;67.50;;;;;;215133;1294;23549;-51
2022/10/16 14:19:57;;;;;;;9.40;3.60;;;23.10;67.50;;;;;;214963;1284;22472;-54
2022/10/16 14:25:26;;;;;;;7.60;3.00;;;23.10;67.90;;;;;;214878;1300;26924;-55
2022/10/16 14:30:35;;;;;;;8.00;2.90;;;23.10;67.70;;;;;;214956;1281;22530;-52
2022/10/16 14:35:44;;;;;;;5.20;2.70;;;23.10;68.10;;;;;;215056;1286;25662;-53
2022/10/16 14:40:49;;;;;;;5.50;2.80;;;23.10;67.80;;;;;;214997;1286;25530;-54
2022/10/16 14:45:57;;;;;;;7.40;2.70;;;23.00;67.90;;;;;;214995;1284;24647;-52
2022/10/16 14:51:01;;;;;;;9.10;3.60;;;23.00;68.20;;;;;;214290;1300;22625;-54
2022/10/16 14:56:14;;;;;;;7.80;2.60;;;23.00;67.90;;;;;;214882;1292;22494;-54
2022/10/16 15:01:21;;;;;;;6.70;3.30;;;23.00;67.80;;;;;;214801;1290;22481;-50
2022/10/16 15:06:27;;;;;;;10.10;3.10;;;22.90;68.40;;;;;;214735;1288;24212;-52
2022/10/16 15:11:38;;;;;;;6.80;3.20;;;22.90;67.80;;;;;;214876;1290;22611;-53
2022/10/16 15:16:43;;;;;;;6.80;2.90;;;22.90;67.80;;;;;;215040;1284;22842;-55
2022/10/16 15:21:49;;;;;;;5.30;2.90;;;22.80;67.50;;;;;;214982;1281;24818;-53
2022/10/16 15:26:52;;;;;;;4.70;3.00;;;22.80;67.80;;;;;;214712;1300;25360;-53
2022/10/16 15:31:57;;;;;;;6.70;3.20;;;22.80;67.80;;;;;;215047;1291;25243;-54
2022/10/16 15:37:03;;;;;;;6.80;3.50;;;22.80;67.90;;;;;;214763;1289;25546;-52
2022/10/16 15:42:07;;;;;;;3.90;2.80;;;22.70;67.90;;;;;;214786;1283;22456;-53
2022/10/16 15:47:14;;;;;;;5.30;2.50;;;22.70;67.80;;;;;;214968;1300;26478;-52
2022/10/16 15:52:18;;;;;;;5.90;3.10;;;22.70;67.90;;;;;;214794;1300;25295;-51
2022/10/16 15:57:23;;;;;;;5.60;2.80;;;22.70;67.90;;;;;;214894;1287;22535;-55
2022/10/16 16:02:30;;;;;;;5.40;2.80;;;22.70;68.20;;;;;;215091;1281;22462;-53
2022/10/16 16:07:34;;;;;;;7.00;3.30;;;22.70;68.10;;;;;;214670;1294;22770;-55
2022/10/16 16:12:42;;;;;;;6.10;3.00;;;22.70;67.80;;;;;;214947;1286;24473;-56
2022/10/16 16:17:58;;;;;;;11.60;3.90;;;22.70;68.00;;;;;;215076;1284;24212;-51
2022/10/16 16:23:08;;;;;;;18.20;5.40;;;22.80;69.20;;;;;;215105;1285;24299;-54
2022/10/16 16:28:18;;;;;;;15.20;5.20;;;22.70;68.90;;;;;;214991;1291;25285;-55
2022/10/16 16:33:23;;;;;;;15.90;6.10;;;22.70;68.60;;;;;;214973;1293;25235;-50
2022/10/16 16:38:27;;;;;;;12.50;5.30;;;22.70;68.70;;;;;;215141;1300;25270;-51
2022/10/16 16:43:34;;;;;;;13.40;5.20;;;22.80;70.80;;;;;;214984;1285;24234;-54
2022/10/16 16:48:53;;;;;;;13.90;5.60;;;22.80;71.20;;;;;;215117;1288;24221;-50
2022/10/16 16:54:07;;;;;;;12.30;4.80;;;22.80;70.80;;;;;;214982;1297;22487;-55
2022/10/16 16:59:19;;;;;;;14.90;5.30;;;22.80;70.50;;;;;;215106;1290;24292;-53
2022/10/16 17:04:27;;;;;;;12.00;4.90;;;22.80;70.50;;;;;;214964;1300;24231;-52
2022/10/16 17:09:32;;;;;;;13.00;5.10;;;22.90;70.50;;;;;;214993;1292;22828;-52
2022/10/16 17:14:44;;;;;;;18.60;5.50;;;22.90;70.70;;;;;;214815;1288;22631;-53
2022/10/16 17:19:50;;;;;;;12.00;4.90;;;22.90;70.30;;;;;;214947;1287;24798;-50
2022/10/16 17:24:55;;;;;;;10.20;4.60;;;22.90;70.50;;;;;;214945;1288;22511;-55
2022/10/16 17:30:03;;;;;;;13.50;5.60;;;22.90;70.60;;;;;;215055;1299;25478;-52
2022/10/16 17:35:11;;;;;;;10.90;5.00;;;22.90;70.50;;;;;;215066;1294;25865;-52
2022/10/16 17:40:24;;;;;;;9.30;5.50;;;22.90;70.30;;;;;;214888;1287;22616;-50
2022/10/16 17:45:29;;;;;;;14.60;4.80;;;22.90;70.20;;;;;;215062;1290;25549;-54
2022/10/16 17:50:42;;;;;;;10.10;5.30;;;22.80;70.40;;;;;;214961;1286;22498;-51
2022/10/16 17:55:46;;;;;;;12.60;5.50;;;22.80;70.20;;;;;;214657;1295;24532;-53
2022/10/16 18:00:56;;;;;;;14.90;6.20;;;22.80;70.40;;;;;;214814;1284;24819;-53
2022/10/16 18:06:05;;;;;;;15.80;5.50;;;22.80;70.50;;;;;;214735;1291;303663;-53
2022/10/16 18:11:19;;;;;;;11.20;5.10;;;22.80;70.50;;;;;;214822;1296;25902;-51
2022/10/16 18:16:24;;;;;;;9.50;5.60;;;22.80;70.60;;;;;;214902;1300;23909;-53
2022/10/16 18:21:40;;;;;;;15.30;5.40;;;22.80;71.20;;;;;;215060;1284;25641;-52
2022/10/16 18:26:57;;;;;;;14.60;6.20;;;22.70;71.50;;;;;;214986;1300;25374;-51
2022/10/16 18:32:00;;;;;;;13.30;7.30;;;22.90;71.50;;;;;;214969;1299;23956;-53
2022/10/16 18:37:04;;;;;;;10.70;5.70;;;23.00;70.90;;;;;;214853;1299;25060;-55
2022/10/16 18:42:08;;;;;;;15.40;6.80;;;23.00;70.70;;;;;;214754;1296;22484;-54
2022/10/16 18:47:13;;;;;;;15.00;6.80;;;23.10;71.20;;;;;;215064;1295;23929;-56
2022/10/16 18:52:17;;;;;;;15.30;7.30;;;23.10;72.60;;;;;;214970;1284;22496;-51
2022/10/16 18:57:33;;;;;;;17.40;6.70;;;23.20;72.80;;;;;;214973;1288;25502;-54
2022/10/16 19:02:49;;;;;;;17.30;7.20;;;23.20;72.60;;;;;;214752;1287;24269;-55
2022/10/16 19:08:00;;;;;;;16.70;6.70;;;23.20;72.20;;;;;;214782;1285;24265;-53
2022/10/16 19:13:05;;;;;;;13.70;7.50;;;23.20;72.30;;;;;;215059;1280;24252;-52
2022/10/16 19:18:13;;;;;;;17.20;7.40;;;23.20;71.90;;;;;;214699;1281;22710;-54
2022/10/16 19:23:17;;;;;;;14.90;7.00;;;23.10;72.30;;;;;;214478;1289;22795;-54
2022/10/16 19:28:21;;;;;;;14.30;7.90;;;23.10;71.90;;;;;;214671;1291;24294;-54
2022/10/16 19:33:24;;;;;;;13.10;6.90;;;23.10;71.80;;;;;;214541;1296;22455;-53
2022/10/16 19:38:46;;;;;;;17.90;7.30;;;23.10;72.00;;;;;;214483;1279;22545;-55
2022/10/16 19:44:21;;;;;;;17.30;7.50;;;23.10;71.90;;;;;;214518;1292;24264;-55
2022/10/16 19:49:29;;;;;;;19.00;7.80;;;23.10;71.50;;;;;;214388;1288;24254;-57
2022/10/16 19:54:45;;;;;;;19.80;7.20;;;23.00;71.00;;;;;;214622;1282;24292;-56
2022/10/16 19:59:57;;;;;;;18.80;8.10;;;23.00;70.80;;;;;;214725;1287;23147;-54
2022/10/16 20:05:04;;;;;;;16.60;7.30;;;23.00;70.80;;;;;;214460;1295;24292;-53
2022/10/16 20:10:13;;;;;;;17.20;8.00;;;23.00;70.60;;;;;;214776;1286;23843;-53
2022/10/16 20:15:24;;;;;;;19.10;7.60;;;23.00;70.50;;;;;;214677;1296;22544;-53
2022/10/16 20:20:50;;;;;;;13.60;7.40;;;23.00;71.40;;;;;;215029;1299;24261;-55
2022/10/16 20:25:54;;;;;;;;;;;23.00;71.80;;;;;;214892;1294;25252;-55
2022/10/16 20:31:21;;;;;;;17.00;7.70;;;23.00;71.90;;;;;;214938;1285;22519;-54
2022/10/16 20:36:32;;;;;;;13.20;7.40;;;23.00;71.90;;;;;;214801;1289;25310;-54
2022/10/16 20:41:55;;;;;;;14.20;7.50;;;23.00;71.90;;;;;;215024;1282;22514;-52
2022/10/16 20:47:01;;;;;;;17.10;7.60;;;23.00;71.50;;;;;;214899;1286;24031;-55
2022/10/16 20:52:10;;;;;;;15.00;7.70;;;23.00;71.50;;;;;;214992;1294;23843;-53
2022/10/16 20:57:18;;;;;;;11.90;7.60;;;22.90;72.10;;;;;;214943;1282;25637;-52
2022/10/16 21:02:23;;;;;;;12.80;7.80;;;22.80;71.50;;;;;;215054;1286;25569;-54
2022/10/16 21:07:31;;;;;;;13.00;7.50;;;22.80;71.50;;;;;;215033;1286;24049;-54
2022/10/16 21:12:40;;;;;;;20.70;8.00;;;22.80;71.50;;;;;;214849;1284;25473;-53
2022/10/16 21:18:04;;;;;;;19.90;9.00;;;22.70;71.60;;;;;;214773;1285;24231;-53
2022/10/16 21:23:26;;;;;;;12.40;7.60;;;22.70;72.00;;;;;;214960;1280;24233;-54
2022/10/16 21:28:45;;;;;;;14.10;8.50;;;22.70;71.60;;;;;;214938;1286;22528;-52
2022/10/16 21:34:05;;;;;;;14.60;7.60;;;22.70;71.70;;;;;;214649;1285;24262;-53
2022/10/16 21:39:32;;;;;;;13.00;8.00;;;22.70;71.60;;;;;;215066;1281;22508;-53
2022/10/16 21:44:37;;;;;;;12.60;8.70;;;22.60;71.80;;;;;;214895;1286;24225;-54
2022/10/16 21:50:05;;;;;;;11.90;8.00;;;22.60;71.90;;;;;;214966;1284;23998;-55
2022/10/16 21:55:45;;;;;;;15.70;7.80;;;22.60;71.90;;;;;;214929;1296;24008;-52
2022/10/16 22:01:21;;;;;;;16.80;8.50;;;22.60;71.90;;;;;;215003;1297;24123;-53
2022/10/16 22:06:34;;;;;;;11.90;8.00;;;22.60;71.90;;;;;;214663;1281;22604;-55
2022/10/16 22:11:53;;;;;;;13.30;8.40;;;22.60;72.00;;;;;;214964;1285;23018;-55
2022/10/16 22:17:09;;;;;;;24.00;9.30;;;22.60;72.00;;;;;;214622;1291;23925;-54
2022/10/16 22:22:18;;;;;;;18.60;9.60;;;22.60;72.00;;;;;;214872;1286;22968;-56
2022/10/16 22:27:22;;;;;;;12.70;8.00;;;22.50;71.90;;;;;;214955;1286;24242;-53
2022/10/16 22:32:40;;;;;;;14.70;8.70;;;22.50;72.00;;;;;;214953;1300;25642;-54
2022/10/16 22:37:48;;;;;;;12.30;8.00;;;22.50;71.90;;;;;;214819;1286;22465;-55
2022/10/16 22:42:52;;;;;;;19.10;9.20;;;22.50;72.30;;;;;;214784;1281;24304;-52
2022/10/16 22:48:03;;;;;;;11.70;7.90;;;22.50;71.90;;;;;;214862;1286;24225;-51
2022/10/16 22:53:09;;;;;;;13.10;8.20;;;22.50;71.80;;;;;;214965;1292;23454;-55
2022/10/16 22:58:17;;;;;;;16.20;7.70;;;22.50;71.90;;;;;;214849;1286;22475;-54
2022/10/16 23:03:21;;;;;;;12.30;7.60;;;22.50;72.00;;;;;;214928;1286;24234;-53
2022/10/16 23:08:25;;;;;;;12.50;8.10;;;22.50;72.00;;;;;;215034;1292;26542;-53
2022/10/16 23:13:35;;;;;;;9.60;7.40;;;22.50;71.70;;;;;;214719;1294;23939;-54
2022/10/16 23:18:40;;;;;;;22.00;9.60;;;22.50;71.80;;;;;;214927;1284;22482;-55
2022/10/16 23:23:47;;;;;;;19.20;8.60;;;22.40;71.90;;;;;;214991;1281;23051;-56
2022/10/16 23:28:51;;;;;;;16.20;8.30;;;22.40;71.70;;;;;;214902;1286;22560;-54
2022/10/16 23:33:56;;;;;;;12.40;7.80;;;22.40;71.70;;;;;;215011;1282;22541;-52
2022/10/16 23:39:00;;;;;;;12.60;7.90;;;22.40;72.00;;;;;;215084;1276;22480;-55
2022/10/16 23:44:05;;;;;;;16.40;8.30;;;22.40;72.00;;;;;;214967;1291;22456;-54
2022/10/16 23:49:08;;;;;;;10.00;7.20;;;22.40;71.60;;;;;;216091;1292;22479;-57
2022/10/16 23:54:18;;;;;;;11.40;7.20;;;22.40;72.00;;;;;;214970;1286;22502;-55
2022/10/16 23:59:25;;;;;;;11.30;7.30;;;22.30;71.60;;;;;;214877;1284;25838;-52
